^^
Station Historical Data
Daily Summary for April 12, 2017 Units:  English    Metric   Both
« Previous Day
Next Day »
Daily Weekly Monthly Yearly Custom
  High: Low: Average:
Temperature: 74.6 °F 55.3 °F 64.2 °F
Dew Point: 58.5 °F 33.3 °F 46.4 °F
Humidity: 89 % 25 % 57 %
Wind Speed: 15.0 mph 0.0 mph 2.7 mph
Wind Gust: 19.6 mph - -
Wind:- - West
Pressure: 30.30 in 30.08 in -
Precipitation: 0.08 in    
Historical Graphs
 
 
Tabular Data for April 12, 2017
Time Temperature Dew Point Pressure Wind Wind Speed Wind Gust Humidity Rainfall Rate (Hourly) solar Conditions
00:13 64.9 °F 50.2 °F 30.11 in Calm     59 % 0.00 in 0.0 W/m2 SCT
00:18 64.8 °F 50.6 °F 30.11 in Calm     60 % 0.00 in 0.0 W/m2 SCT
00:24 64.9 °F 50.7 °F 30.12 in Calm     60 % 0.00 in 0.0 W/m2 SCT
00:29 64.9 °F 50.7 °F 30.12 in Calm     60 % 0.00 in 0.0 W/m2 SCT
00:34 64.8 °F 50.6 °F 30.12 in Calm     60 % 0.00 in 0.0 W/m2 SCT
00:39 64.8 °F 51.0 °F 30.12 in Calm     61 % 0.00 in 0.0 W/m2 SCT
00:44 65.0 °F 50.8 °F 30.12 in Calm     60 % 0.00 in 0.0 W/m2 SCT
00:49 65.1 °F 50.9 °F 30.12 in Calm     60 % 0.00 in 0.0 W/m2 SCT
00:54 64.8 °F 50.6 °F 30.12 in Calm     60 % 0.00 in 0.0 W/m2 SCT
00:59 64.8 °F 51.5 °F 30.11 in Calm     62 % 0.00 in 0.0 W/m2 SCT
01:04 64.6 °F 50.8 °F 30.11 in Calm     61 % 0.00 in 0.0 W/m2 SCT
01:09 64.3 °F 51.4 °F 30.11 in Calm     63 % 0.00 in 0.0 W/m2 SCT
01:14 64.5 °F 51.2 °F 30.11 in Calm     62 % 0.00 in 0.0 W/m2 SCT
01:19 64.3 °F 51.4 °F 30.11 in Calm     63 % 0.00 in 0.0 W/m2 SCT
01:24 63.9 °F 51.1 °F 30.11 in Calm     63 % 0.00 in 0.0 W/m2 SCT
01:29 62.7 °F 50.3 °F 30.11 in Calm     64 % 0.00 in 0.0 W/m2 SCT
01:34 62.6 °F 51.1 °F 30.11 in Calm     66 % 0.00 in 0.0 W/m2 SCT
01:39 62.2 °F 50.7 °F 30.11 in WNW 2.3 mph 3.5 mph 66 % 0.00 in 0.0 W/m2 SCT
01:44 62.1 °F 50.6 °F 30.11 in Calm     66 % 0.00 in 0.0 W/m2 SCT
01:49 62.4 °F 50.9 °F 30.11 in WNW 1.1 mph 3.5 mph 66 % 0.00 in 0.0 W/m2 SCT
01:54 62.9 °F 51.0 °F 30.11 in Calm     65 % 0.00 in 0.0 W/m2 SCT
01:59 63.5 °F 51.1 °F 30.10 in Calm     64 % 0.00 in 0.0 W/m2 SCT
02:04 64.0 °F 51.6 °F 30.10 in Calm     64 % 0.00 in 0.0 W/m2 SCT
02:09 64.1 °F 51.7 °F 30.10 in Calm     64 % 0.00 in 0.0 W/m2 SCT
02:14 63.7 °F 51.3 °F 30.10 in Calm     64 % 0.00 in 0.0 W/m2 SCT
02:19 63.5 °F 51.1 °F 30.10 in Calm     64 % 0.00 in 0.0 W/m2 SCT
02:20 63.4 °F 51.4 °F 30.10 in Calm     65 % 0.00 in 0.0 W/m2 SCT
02:25 62.9 °F 51.0 °F 30.10 in Calm     65 % 0.00 in 0.0 W/m2 SCT
02:30 62.5 °F 51.0 °F 30.10 in Calm     66 % 0.00 in 0.0 W/m2 SCT
02:35 62.4 °F 50.9 °F 30.10 in Calm     66 % 0.00 in 0.0 W/m2 SCT
02:40 61.9 °F 51.2 °F 30.10 in Calm     68 % 0.00 in 0.0 W/m2 SCT
02:45 60.9 °F 50.7 °F 30.10 in Calm     69 % 0.00 in 0.0 W/m2 SCT
02:50 60.2 °F 50.4 °F 30.10 in Calm     70 % 0.00 in 0.0 W/m2 SCT
02:55 60.0 °F 50.6 °F 30.10 in Calm     71 % 0.00 in 0.0 W/m2 SCT
03:00 59.5 °F 50.1 °F 30.09 in Calm     71 % 0.00 in 0.0 W/m2 SCT
03:05 59.4 °F 50.4 °F 30.09 in Calm     72 % 0.00 in 0.0 W/m2 SCT
03:10 59.7 °F 51.0 °F 30.09 in Calm     73 % 0.00 in 0.0 W/m2 SCT
03:15 59.7 °F 51.0 °F 30.09 in Calm     73 % 0.00 in 0.0 W/m2 SCT
03:20 59.7 °F 51.0 °F 30.09 in Calm     73 % 0.00 in 0.0 W/m2 SCT
03:25 59.4 °F 50.7 °F 30.09 in Calm     73 % 0.00 in 0.0 W/m2 SCT
03:35 58.5 °F 50.2 °F 30.09 in Calm     74 % 0.00 in 0.0 W/m2 SCT
03:40 58.2 °F 50.0 °F 30.09 in Calm     74 % 0.00 in 0.0 W/m2 SCT
03:45 58.1 °F 50.2 °F 30.09 in Calm     75 % 0.00 in 0.0 W/m2 SCT
03:50 58.1 °F 50.2 °F 30.09 in Calm     75 % 0.00 in 0.0 W/m2 SCT
03:55 57.8 °F 50.3 °F 30.09 in Calm     76 % 0.00 in 0.0 W/m2 SCT
04:00 57.9 °F 50.4 °F 30.09 in Calm     76 % 0.00 in 0.0 W/m2 SCT
04:05 57.8 °F 50.3 °F 30.08 in Calm     76 % 0.00 in 0.0 W/m2 SCT
04:10 57.9 °F 50.4 °F 30.09 in Calm     76 % 0.00 in 0.0 W/m2 SCT
04:15 57.8 °F 50.3 °F 30.09 in Calm     76 % 0.00 in 0.0 W/m2 SCT
04:20 57.3 °F 49.8 °F 30.09 in Calm     76 % 0.00 in 0.0 W/m2 SCT
04:25 57.2 °F 50.4 °F 30.09 in Calm     78 % 0.00 in 0.0 W/m2 SCT
04:30 57.0 °F 50.2 °F 30.09 in Calm     78 % 0.00 in 0.0 W/m2 SCT
04:35 57.0 °F 50.5 °F 30.09 in Calm     79 % 0.00 in 0.0 W/m2 SCT
04:40 57.2 °F 50.4 °F 30.09 in Calm     78 % 0.00 in 0.0 W/m2 SCT
04:45 57.1 °F 50.3 °F 30.09 in Calm     78 % 0.00 in 0.0 W/m2 SCT
04:55 56.5 °F 49.7 °F 30.09 in Calm     78 % 0.00 in 0.0 W/m2 SCT
05:00 56.3 °F 49.9 °F 30.09 in Calm     79 % 0.00 in 0.0 W/m2 SCT
05:05 56.4 °F 50.0 °F 30.09 in Calm     79 % 0.00 in 0.0 W/m2 SCT
05:10 56.3 °F 49.9 °F 30.09 in Calm     79 % 0.00 in 0.0 W/m2 SCT
05:15 56.1 °F 49.7 °F 30.09 in Calm     79 % 0.00 in 0.0 W/m2 SCT
05:20 55.9 °F 49.8 °F 30.09 in Calm     80 % 0.00 in 0.0 W/m2 SCT
05:25 55.7 °F 49.6 °F 30.10 in Calm     80 % 0.00 in 0.0 W/m2 SCT
05:30 55.5 °F 49.8 °F 30.10 in Calm     81 % 0.00 in 0.0 W/m2 SCT
05:35 55.3 °F 49.6 °F 30.10 in Calm     81 % 0.00 in 0.0 W/m2 SCT
05:40 55.4 °F 50.0 °F 30.10 in Calm     82 % 0.00 in 0.0 W/m2 SCT
05:45 55.4 °F 49.7 °F 30.10 in Calm     81 % 0.00 in 0.0 W/m2 SCT
05:50 55.5 °F 49.8 °F 30.10 in Calm     81 % 0.00 in 0.0 W/m2 SCT
05:55 55.7 °F 50.0 °F 30.11 in Calm     81 % 0.00 in 0.0 W/m2 SCT
06:00 55.9 °F 50.2 °F 30.11 in Calm     81 % 0.00 in 0.0 W/m2 SCT
06:05 55.7 °F 50.0 °F 30.11 in Calm     81 % 0.00 in 0.0 W/m2 SCT
06:10 55.7 °F 50.0 °F 30.11 in Calm     81 % 0.00 in 0.0 W/m2 SCT
06:15 55.4 °F 49.7 °F 30.11 in Calm     81 % 0.00 in 0.0 W/m2 SCT
06:20 55.6 °F 49.9 °F 30.11 in Calm     81 % 0.00 in 0.0 W/m2 SCT
06:25 55.6 °F 49.9 °F 30.12 in Calm     81 % 0.00 in 0.0 W/m2 SCT
06:30 55.6 °F 49.9 °F 30.12 in Calm     81 % 0.00 in 0.0 W/m2 SCT
06:35 55.8 °F 50.1 °F 30.13 in Calm     81 % 0.00 in 0.0 W/m2 SCT
06:40 55.9 °F 50.2 °F 30.13 in Calm     81 % 0.00 in 0.0 W/m2 SCT
06:45 56.0 °F 50.6 °F 30.13 in Calm     82 % 0.00 in 5.0 W/m2 SCT
06:50 56.3 °F 50.5 °F 30.13 in Calm     81 % 0.00 in 11.0 W/m2 SCT
06:56 56.5 °F 50.7 °F 30.13 in Calm     81 % 0.00 in 16.0 W/m2 SCT
06:58 56.7 °F 50.9 °F 30.13 in Calm     81 % 0.00 in 19.0 W/m2 SCT
07:03 57.0 °F 50.9 °F 30.14 in Calm     80 % 0.00 in 18.0 W/m2 SCT
07:08 57.3 °F 51.2 °F 30.13 in Calm     80 % 0.00 in 23.0 W/m2 SCT
07:14 57.4 °F 50.9 °F 30.14 in Calm     79 % 0.00 in 37.0 W/m2 SCT
07:19 57.3 °F 51.2 °F 30.13 in Calm     80 % 0.00 in 44.0 W/m2 SCT
07:24 57.5 °F 51.4 °F 30.14 in Calm     80 % 0.00 in 32.0 W/m2 BKN
07:29 57.8 °F 51.7 °F 30.14 in Calm     80 % 0.00 in 26.0 W/m2 BKN
07:34 57.9 °F 51.8 °F 30.14 in Calm     80 % 0.00 in 32.0 W/m2 OVC
07:39 58.0 °F 51.5 °F 30.15 in Calm     79 % 0.00 in 33.0 W/m2 BKN
07:44 58.1 °F 51.6 °F 30.15 in Calm     79 % 0.00 in 21.0 W/m2 OVC
07:49 58.5 °F 52.4 °F 30.15 in Calm     80 % 0.00 in 26.0 W/m2 OVC
07:54 59.4 °F 52.9 °F 30.15 in NW 0.4 mph 2.3 mph 79 % 0.00 in 30.0 W/m2 OVC
07:59 60.5 °F 53.3 °F 30.16 in Calm     77 % 0.00 in 35.0 W/m2 OVC
08:04 61.5 °F 53.5 °F 30.16 in West 1.1 mph 1.2 mph 75 % 0.00 in 49.0 W/m2 OVC
08:09 62.0 °F 53.6 °F 30.16 in Calm   1.2 mph 74 % 0.00 in 39.0 W/m2 OVC
08:14 61.8 °F 53.1 °F 30.16 in Calm     73 % 0.00 in 35.0 W/m2 OVC
08:19 61.7 °F 53.3 °F 30.16 in Calm     74 % 0.00 in 28.0 W/m2 OVC
08:24 61.7 °F 53.3 °F 30.16 in Calm     74 % 0.00 in 35.0 W/m2 OVC
08:29 61.7 °F 53.3 °F 30.16 in Calm     74 % 0.00 in 65.0 W/m2 OVC
08:34 61.8 °F 53.4 °F 30.16 in Calm     74 % 0.00 in 74.0 W/m2 OVC
08:39 62.1 °F 53.3 °F 30.16 in Calm     73 % 0.00 in 72.0 W/m2 OVC
08:44 62.3 °F 53.5 °F 30.16 in Calm     73 % 0.00 in 47.0 W/m2 OVC
08:49 62.1 °F 53.7 °F 30.17 in Calm     74 % 0.00 in 56.0 W/m2 OVC
08:54 62.3 °F 54.3 °F 30.17 in Calm     75 % 0.00 in 56.0 W/m2 OVC
08:59 62.5 °F 54.5 °F 30.17 in West 0.9 mph 4.0 mph 75 % 0.00 in 56.0 W/m2 OVC
09:04 63.0 °F 54.6 °F 30.18 in West 3.7 mph 5.8 mph 74 % 0.00 in 37.0 W/m2 OVC
09:09 63.2 °F 54.8 °F 30.18 in West 3.8 mph 6.9 mph 74 % 0.02 in 39.0 W/m2 RA
09:14 62.4 °F 55.4 °F 30.19 in Calm     78 % 0.04 in 33.0 W/m2 RA
09:19 61.4 °F 55.2 °F 30.19 in West 0.8 mph 3.5 mph 80 % 0.04 in 37.0 W/m2 RA
09:24 61.0 °F 55.5 °F 30.18 in West 0.5 mph 2.3 mph 82 % 0.04 in 46.0 W/m2 OVC
09:28 61.1 °F 55.6 °F 30.18 in WNW 0.4 mph 4.6 mph 82 % 0.05 in 62.0 W/m2 RA
09:33 61.2 °F 56.0 °F 30.18 in Calm     83 % 0.05 in 149.0 W/m2 RA
09:38 61.6 °F 56.4 °F 30.19 in NW 1.3 mph 3.5 mph 83 % 0.05 in 192.0 W/m2 BKN
09:43 62.0 °F 56.4 °F 30.18 in Calm     82 % 0.05 in 160.0 W/m2 BKN
09:48 62.0 °F 56.4 °F 30.19 in Calm     82 % 0.05 in 76.0 W/m2 OVC
09:53 62.1 °F 56.5 °F 30.19 in NW 0.3 mph   82 % 0.05 in 51.0 W/m2 OVC
09:58 62.2 °F 56.6 °F 30.19 in Calm     82 % 0.05 in 56.0 W/m2 OVC
10:03 62.0 °F 56.8 °F 30.19 in Calm     83 % 0.05 in 42.0 W/m2 OVC
10:08 61.4 °F 56.5 °F 30.18 in Calm     84 % 0.07 in 58.0 W/m2 RA
10:13 61.4 °F 57.2 °F 30.19 in Calm     86 % 0.03 in 97.0 W/m2 RA
10:18 60.5 °F 56.6 °F 30.19 in SW 0.4 mph 3.5 mph 87 % 0.03 in 141.0 W/m2 OVC
10:23 60.3 °F 56.7 °F 30.19 in Calm     88 % 0.03 in 218.0 W/m2 BKN
10:25 60.4 °F 56.8 °F 30.19 in Calm     88 % 0.03 in 244.0 W/m2 BKN
10:30 60.6 °F 57.3 °F 30.20 in Calm   3.5 mph 89 % 0.02 in 220.0 W/m2 BKN
10:35 60.5 °F 57.2 °F 30.20 in Calm   2.0 mph 89 % 0.02 in 236.0 W/m2 BKN
10:40 60.8 °F 57.5 °F 30.21 in Calm   3.5 mph 89 % 0.02 in 241.0 W/m2 BKN
10:45 61.0 °F 57.7 °F 30.21 in WSW 3.5 mph 3.5 mph 89 % 0.02 in 190.0 W/m2 BKN
10:50 61.4 °F 57.8 °F 30.21 in West 0.8 mph 2.0 mph 88 % 0.02 in 272.0 W/m2 BKN
10:55 61.9 °F 58.0 °F 30.21 in West 0.6 mph   87 % 0.02 in 278.0 W/m2 BKN
11:00 62.3 °F 58.1 °F 30.20 in Calm   1.2 mph 86 % 0.02 in 251.0 W/m2 BKN
11:05 62.7 °F 58.1 °F 30.21 in WSW 1.0 mph 4.0 mph 85 % 0.00 in 297.0 W/m2 BKN
11:10 63.0 °F 58.1 °F 30.20 in WSW 1.0 mph 4.0 mph 84 % 0.00 in 359.0 W/m2 BKN
11:15 63.4 °F 58.5 °F 30.20 in WSW 2.6 mph 4.6 mph 84 % 0.00 in 422.0 W/m2 SCT
11:20 63.9 °F 58.3 °F 30.20 in WSW 3.0 mph 6.0 mph 82 % 0.00 in 468.0 W/m2 SCT
11:25 64.3 °F 58.4 °F 30.20 in Calm   6.0 mph 81 % 0.00 in 299.0 W/m2 BKN
11:30 64.6 °F 58.3 °F 30.20 in WSW 2.4 mph 5.0 mph 80 % 0.00 in 260.0 W/m2 BKN
11:40 64.2 °F 57.6 °F 30.20 in SW 1.0 mph 7.0 mph 79 % 0.00 in 193.0 W/m2 OVC
11:45 64.1 °F 57.5 °F 30.20 in WSW 1.6 mph 3.5 mph 79 % 0.00 in 190.0 W/m2 OVC
11:50 64.3 °F 57.6 °F 30.20 in SW 5.0 mph 9.0 mph 79 % 0.00 in 188.0 W/m2 OVC
11:55 64.3 °F 57.3 °F 30.20 in SW 6.0 mph 10.0 mph 78 % 0.00 in 204.0 W/m2 OVC
12:00 64.3 °F 56.6 °F 30.21 in West 11.1 mph 19.6 mph 76 % 0.00 in 397.0 W/m2 BKN
12:04 63.9 °F 54.7 °F 30.19 in West 5.0 mph 10.4 mph 72 % 0.00 in 454.0 W/m2 SCT
12:09 64.6 °F 54.6 °F 30.19 in WNW 6.0 mph 11.5 mph 70 % 0.00 in 712.0 W/m2 CLR
12:14 65.0 °F 54.6 °F 30.19 in WNW 4.3 mph 10.4 mph 69 % 0.00 in 415.0 W/m2 SCT
12:19 65.3 °F 54.9 °F 30.19 in WSW 5.6 mph 10.4 mph 69 % 0.00 in 436.0 W/m2 SCT
12:24 65.4 °F 54.6 °F 30.19 in West 4.0 mph 8.1 mph 68 % 0.00 in 568.0 W/m2 FEW
12:29 66.0 °F 54.7 °F 30.18 in WSW 2.5 mph 5.8 mph 67 % 0.00 in 571.0 W/m2 FEW
12:34 66.5 °F 54.8 °F 30.18 in West 3.1 mph 8.1 mph 66 % 0.00 in 497.0 W/m2 FEW
12:39 66.4 °F 54.3 °F 30.18 in SW 2.2 mph 6.9 mph 65 % 0.00 in 795.0 W/m2 CLR
12:44 66.7 °F 54.6 °F 30.18 in WSW 3.2 mph 5.8 mph 65 % 0.00 in 798.0 W/m2 CLR
12:49 67.0 °F 53.1 °F 30.18 in WSW 8.2 mph 11.5 mph 61 % 0.00 in 731.0 W/m2 CLR
12:54 67.7 °F 52.9 °F 30.17 in West 6.6 mph 12.7 mph 59 % 0.00 in 772.0 W/m2 CLR
12:59 68.1 °F 52.3 °F 30.18 in WNW 6.6 mph 10.4 mph 57 % 0.00 in 856.0 W/m2 CLR
13:04 68.5 °F 52.2 °F 30.17 in WSW 8.1 mph 11.5 mph 56 % 0.00 in 888.0 W/m2 CLR
13:09 69.0 °F 51.7 °F 30.17 in NW 1.8 mph 9.0 mph 54 % 0.00 in 626.0 W/m2 FEW
13:14 69.1 °F 49.7 °F 30.17 in WNW 3.2 mph 11.5 mph 50 % 0.00 in 617.0 W/m2 FEW
13:19 69.2 °F 49.2 °F 30.17 in West 4.2 mph 9.2 mph 49 % 0.00 in 726.0 W/m2 FEW
13:24 69.8 °F 45.0 °F 30.16 in WNW 7.0 mph 12.7 mph 41 % 0.00 in 766.0 W/m2 CLR
13:29 70.3 °F 44.8 °F 30.16 in NW 5.6 mph 11.5 mph 40 % 0.00 in 636.0 W/m2 CLR
13:34 70.4 °F 44.3 °F 30.16 in NW 5.7 mph 13.0 mph 39 % 0.00 in 554.0 W/m2 SCT
13:39 70.7 °F 41.7 °F 30.16 in NW 7.9 mph 11.5 mph 35 % 0.00 in 754.0 W/m2 CLR
13:44 71.1 °F 41.3 °F 30.16 in WNW 7.5 mph 12.7 mph 34 % 0.00 in 814.0 W/m2 CLR
13:49 71.7 °F 41.0 °F 30.16 in West 10.0 mph 15.0 mph 33 % 0.00 in 853.0 W/m2 CLR
13:54 71.3 °F 39.9 °F 30.15 in WSW 8.6 mph 11.5 mph 32 % 0.00 in 722.0 W/m2 CLR
14:04 71.4 °F 42.3 °F 30.15 in West 6.2 mph 10.4 mph 35 % 0.00 in 740.0 W/m2 CLR
14:09 71.7 °F 42.6 °F 30.15 in WNW 5.0 mph 13.0 mph 35 % 0.00 in 758.0 W/m2 RA
14:15 71.5 °F 40.1 °F 30.15 in NW 15.0 mph 15.0 mph 32 % 0.00 in 710.0 W/m2 RA
14:20 71.8 °F 37.8 °F 30.15 in WNW 11.7 mph 13.8 mph 29 % 0.00 in 954.0 W/m2 CLR
14:25 72.2 °F 39.9 °F 30.15 in WNW 7.1 mph 11.5 mph 31 % 0.00 in 912.0 W/m2 CLR
14:30 73.1 °F 38.9 °F 30.15 in WNW 4.8 mph 10.4 mph 29 % 0.00 in 865.0 W/m2 CLR
14:35 72.9 °F 38.8 °F 30.15 in West 7.7 mph 9.2 mph 29 % 0.00 in 828.0 W/m2 CLR
14:40 73.0 °F 38.0 °F 30.15 in WNW 7.4 mph 11.5 mph 28 % 0.00 in 775.0 W/m2 CLR
14:45 73.2 °F 38.1 °F 30.15 in West 8.2 mph 12.7 mph 28 % 0.00 in 668.0 W/m2 CLR
14:50 73.4 °F 39.2 °F 30.14 in West 5.2 mph 8.0 mph 29 % 0.00 in 786.0 W/m2 CLR
14:55 73.2 °F 41.6 °F 30.14 in WNW 4.2 mph 10.4 mph 32 % 0.00 in 786.0 W/m2 CLR
14:56 73.3 °F 40.8 °F 30.14 in West 7.7 mph 10.4 mph 31 % 0.00 in 737.0 W/m2 CLR
15:01 73.2 °F 41.6 °F 30.14 in West 6.2 mph 10.4 mph 32 % 0.00 in 629.0 W/m2 CLR
15:06 73.7 °F 42.0 °F 30.14 in WSW 6.1 mph 9.0 mph 32 % 0.00 in 840.0 W/m2 CLR
15:11 73.8 °F 42.1 °F 30.14 in SW 8.2 mph 15.0 mph 32 % 0.00 in 800.0 W/m2 CLR
15:17 73.8 °F 41.3 °F 30.14 in SW 7.4 mph 11.5 mph 31 % 0.00 in 740.0 W/m2 CLR
15:22 74.0 °F 37.9 °F 30.14 in WSW 11.3 mph 17.3 mph 27 % 0.00 in 805.0 W/m2 CLR
15:27 73.9 °F 39.6 °F 30.14 in SW 3.6 mph 9.2 mph 29 % 0.00 in 657.0 W/m2 CLR
15:32 74.1 °F 38.0 °F 30.14 in SSW 9.7 mph 15.0 mph 27 % 0.00 in 598.0 W/m2 CLR
15:37 74.3 °F 37.2 °F 30.14 in WSW 10.3 mph 16.1 mph 26 % 0.00 in 710.0 W/m2 CLR
15:42 74.3 °F 37.2 °F 30.14 in NW 8.3 mph 13.8 mph 26 % 0.00 in 738.0 W/m2 CLR
15:52 74.6 °F 37.4 °F 30.14 in WSW 11.0 mph 16.1 mph 26 % 0.00 in 712.0 W/m2 CLR
15:57 74.3 °F 36.2 °F 30.14 in West 9.9 mph 15.0 mph 25 % 0.00 in 687.0 W/m2 CLR
16:02 74.2 °F 36.1 °F 30.14 in West 8.9 mph 15.0 mph 25 % 0.00 in 671.0 W/m2 CLR
16:07 74.3 °F 37.2 °F 30.14 in SW 13.2 mph 19.6 mph 26 % 0.00 in 663.0 W/m2 CLR
16:12 74.1 °F 37.0 °F 30.14 in WSW 8.1 mph 11.5 mph 26 % 0.00 in 629.0 W/m2 CLR
16:17 74.0 °F 36.9 °F 30.14 in WSW 11.5 mph 16.1 mph 26 % 0.00 in 615.0 W/m2 CLR
16:23 74.1 °F 38.9 °F 30.14 in West 7.1 mph 10.4 mph 28 % 0.00 in 592.0 W/m2 CLR
16:28 73.9 °F 37.8 °F 30.14 in West 12.3 mph 19.6 mph 27 % 0.00 in 577.0 W/m2 CLR
16:33 73.9 °F 38.7 °F 30.15 in WSW 9.7 mph 17.3 mph 28 % 0.00 in 557.0 W/m2 CLR
16:38 73.6 °F 36.6 °F 30.15 in West 11.3 mph 17.3 mph 26 % 0.00 in 543.0 W/m2 CLR
16:43 73.6 °F 38.5 °F 30.15 in WSW 6.4 mph 14.0 mph 28 % 0.00 in 524.0 W/m2 CLR
16:48 73.7 °F 37.6 °F 30.15 in NW 9.6 mph 15.0 mph 27 % 0.00 in 508.0 W/m2 CLR
16:53 73.4 °F 37.4 °F 30.15 in West 5.4 mph 9.2 mph 27 % 0.00 in 490.0 W/m2 CLR
16:58 73.3 °F 37.3 °F 30.15 in WSW 10.1 mph 13.8 mph 27 % 0.00 in 478.0 W/m2 CLR
17:03 73.3 °F 37.3 °F 30.15 in WSW 9.9 mph 18.0 mph 27 % 0.00 in 457.0 W/m2 CLR
17:08 73.2 °F 37.2 °F 30.15 in SW 8.3 mph 13.8 mph 27 % 0.00 in 438.0 W/m2 CLR
17:13 73.0 °F 38.0 °F 30.15 in West 2.6 mph 8.1 mph 28 % 0.00 in 418.0 W/m2 CLR
17:18 73.5 °F 38.4 °F 30.15 in WNW 9.1 mph 12.7 mph 28 % 0.00 in 403.0 W/m2 CLR
17:23 73.3 °F 38.2 °F 30.15 in West 6.7 mph 11.5 mph 28 % 0.00 in 383.0 W/m2 CLR
17:28 73.5 °F 39.3 °F 30.15 in West 9.7 mph 12.7 mph 29 % 0.00 in 364.0 W/m2 CLR
17:33 73.5 °F 38.4 °F 30.16 in WSW 6.4 mph 11.5 mph 28 % 0.00 in 345.0 W/m2 CLR
17:38 73.2 °F 38.1 °F 30.16 in WSW 13.5 mph 16.1 mph 28 % 0.00 in 330.0 W/m2 CLR
17:43 72.9 °F 38.8 °F 30.16 in WSW 8.7 mph 12.7 mph 29 % 0.00 in 311.0 W/m2 CLR
17:48 72.8 °F 39.5 °F 30.16 in WSW 6.2 mph 10.4 mph 30 % 0.00 in 292.0 W/m2 CLR
17:53 72.9 °F 40.5 °F 30.16 in WNW 6.2 mph 9.0 mph 31 % 0.00 in 276.0 W/m2 CLR
17:58 72.7 °F 38.6 °F 30.16 in SW 6.6 mph 11.5 mph 29 % 0.00 in 258.0 W/m2 CLR
18:03 72.4 °F 38.3 °F 30.16 in SW 9.7 mph 17.3 mph 29 % 0.00 in 239.0 W/m2 CLR
18:08 72.1 °F 38.1 °F 30.16 in WSW 10.9 mph 18.4 mph 29 % 0.00 in 218.0 W/m2 CLR
18:13 72.1 °F 38.9 °F 30.16 in WNW 1.6 mph 6.9 mph 30 % 0.00 in 199.0 W/m2 CLR
18:14 72.1 °F 38.1 °F 30.16 in WSW 3.8 mph 9.2 mph 29 % 0.00 in 195.0 W/m2 CLR
18:19 72.1 °F 38.9 °F 30.17 in SW 7.1 mph 12.7 mph 30 % 0.00 in 174.0 W/m2 CLR
18:24 71.8 °F 38.7 °F 30.17 in WNW 9.5 mph 13.8 mph 30 % 0.00 in 153.0 W/m2 CLR
18:29 71.7 °F 38.6 °F 30.17 in WSW 7.3 mph 11.5 mph 30 % 0.00 in 134.0 W/m2 FEW
18:34 71.6 °F 37.6 °F 30.17 in West 6.4 mph 11.5 mph 29 % 0.00 in 114.0 W/m2 FEW
18:39 71.4 °F 37.5 °F 30.17 in West 8.6 mph 13.8 mph 29 % 0.00 in 95.0 W/m2 FEW
18:44 71.2 °F 37.3 °F 30.17 in NW 7.2 mph 11.5 mph 29 % 0.00 in 79.0 W/m2 FEW
18:49 71.1 °F 36.3 °F 30.18 in WNW 5.9 mph 12.7 mph 28 % 0.00 in 67.0 W/m2 SCT
18:54 71.0 °F 36.2 °F 30.18 in West 5.8 mph 10.4 mph 28 % 0.00 in 51.0 W/m2 SCT
18:59 70.7 °F 36.9 °F 30.18 in WSW 7.3 mph 10.4 mph 29 % 0.00 in 39.0 W/m2 BKN
19:04 70.4 °F 37.5 °F 30.18 in West 5.0 mph 8.1 mph 30 % 0.00 in 28.0 W/m2 BKN
19:06 70.2 °F 38.1 °F 30.18 in WSW 3.9 mph 5.8 mph 31 % 0.00 in 26.0 W/m2 BKN
19:11 69.8 °F 37.8 °F 30.18 in WNW 8.3 mph 12.7 mph 31 % 0.00 in 21.0 W/m2 BKN
19:16 69.4 °F 38.2 °F 30.18 in WSW 6.1 mph 9.2 mph 32 % 0.00 in 19.0 W/m2 BKN
19:21 69.0 °F 38.7 °F 30.18 in West 2.3 mph 2.3 mph 33 % 0.00 in 16.0 W/m2 BKN
19:26 68.6 °F 38.3 °F 30.19 in West 6.3 mph 11.5 mph 33 % 0.00 in 12.0 W/m2 SCT
19:31 68.4 °F 38.2 °F 30.19 in WSW 3.8 mph 7.0 mph 33 % 0.00 in 7.0 W/m2 SCT
19:36 68.2 °F 38.7 °F 30.19 in West 0.7 mph 3.5 mph 34 % 0.00 in 5.0 W/m2 SCT
19:41 67.7 °F 38.3 °F 30.19 in Calm   1.2 mph 34 % 0.00 in 0.0 W/m2 SCT
19:46 67.2 °F 39.3 °F 30.19 in West 0.5 mph 4.0 mph 36 % 0.00 in 0.0 W/m2 SCT
19:51 66.8 °F 39.0 °F 30.19 in Calm   3.5 mph 36 % 0.00 in 0.0 W/m2 SCT
19:56 66.2 °F 38.4 °F 30.19 in WSW 0.1 mph   36 % 0.00 in 0.0 W/m2 SCT
20:01 66.1 °F 39.1 °F 30.20 in WSW 0.7 mph 1.2 mph 37 % 0.00 in 0.0 W/m2 SCT
20:06 65.7 °F 38.7 °F 30.20 in WSW 0.1 mph 1.0 mph 37 % 0.00 in 0.0 W/m2 SCT
20:11 65.4 °F 39.1 °F 30.20 in Calm     38 % 0.00 in 0.0 W/m2 SCT
20:16 65.2 °F 38.9 °F 30.20 in Calm   1.2 mph 38 % 0.00 in 0.0 W/m2 SCT
20:21 64.7 °F 39.2 °F 30.20 in SW 0.1 mph 1.2 mph 39 % 0.00 in 0.0 W/m2 SCT
20:31 64.3 °F 40.1 °F 30.20 in SW 0.1 mph 1.0 mph 41 % 0.00 in 0.0 W/m2 SCT
20:36 63.8 °F 39.6 °F 30.21 in Calm     41 % 0.00 in 0.0 W/m2 SCT
20:41 63.5 °F 40.0 °F 30.21 in Calm   2.3 mph 42 % 0.00 in 0.0 W/m2 SCT
20:46 63.5 °F 40.0 °F 30.22 in WSW 0.6 mph 2.3 mph 42 % 0.00 in 0.0 W/m2 SCT
20:51 63.2 °F 40.3 °F 30.22 in WSW 1.8 mph 3.5 mph 43 % 0.00 in 0.0 W/m2 SCT
20:56 63.0 °F 40.1 °F 30.22 in WSW 1.1 mph 3.5 mph 43 % 0.00 in 0.0 W/m2 SCT
21:01 62.5 °F 40.9 °F 30.22 in Calm     45 % 0.00 in 0.0 W/m2 SCT
21:06 62.3 °F 40.1 °F 30.22 in WSW 1.8 mph 5.8 mph 44 % 0.00 in 0.0 W/m2 SCT
21:11 62.5 °F 39.7 °F 30.23 in West 2.0 mph 6.0 mph 43 % 0.00 in 0.0 W/m2 SCT
21:16 62.8 °F 39.4 °F 30.23 in West 2.9 mph 5.8 mph 42 % 0.00 in 0.0 W/m2 SCT
21:21 62.6 °F 39.2 °F 30.23 in West 1.8 mph 6.9 mph 42 % 0.00 in 0.0 W/m2 SCT
21:26 62.3 °F 39.5 °F 30.23 in West 2.5 mph 6.9 mph 43 % 0.00 in 0.0 W/m2 SCT
21:31 62.2 °F 38.8 °F 30.24 in WSW 2.0 mph 10.4 mph 42 % 0.00 in 0.0 W/m2 SCT
21:36 62.1 °F 38.7 °F 30.24 in WSW 3.7 mph 3.7 mph 42 % 0.00 in 0.0 W/m2 SCT
21:41 62.0 °F 38.0 °F 30.24 in WSW 4.2 mph 6.9 mph 41 % 0.00 in 0.0 W/m2 SCT
21:46 61.9 °F 37.9 °F 30.24 in West 2.4 mph 4.0 mph 41 % 0.00 in 0.0 W/m2 SCT
21:51 61.7 °F 37.7 °F 30.25 in WSW 2.7 mph 8.1 mph 41 % 0.00 in 0.0 W/m2 SCT
21:56 61.4 °F 37.5 °F 30.25 in West 1.1 mph 2.3 mph 41 % 0.00 in 0.0 W/m2 SCT
22:01 61.3 °F 37.4 °F 30.25 in West 0.1 mph 3.5 mph 41 % 0.00 in 0.0 W/m2 SCT
22:07 61.2 °F 37.3 °F 30.25 in West 0.6 mph 2.3 mph 41 % 0.00 in 0.0 W/m2 SCT
22:12 60.9 °F 36.4 °F 30.25 in West 0.5 mph 3.5 mph 40 % 0.00 in 0.0 W/m2 SCT
22:17 61.9 °F 34.6 °F 30.26 in West 4.7 mph 7.0 mph 36 % 0.00 in 0.0 W/m2 SCT
22:22 62.9 °F 33.3 °F 30.26 in NW 3.5 mph 5.0 mph 33 % 0.00 in 0.0 W/m2 SCT
22:27 62.2 °F 34.9 °F 30.27 in North 3.1 mph 5.8 mph 36 % 0.00 in 0.0 W/m2 SCT
22:32 61.0 °F 35.2 °F 30.27 in Calm     38 % 0.00 in 0.0 W/m2 SCT
22:37 61.2 °F 34.7 °F 30.27 in WNW 1.4 mph 3.5 mph 37 % 0.00 in 0.0 W/m2 SCT
22:42 61.5 °F 35.0 °F 30.27 in WNW 0.3 mph 2.3 mph 37 % 0.00 in 0.0 W/m2 SCT
22:47 61.6 °F 34.4 °F 30.27 in Calm   1.2 mph 36 % 0.00 in 0.0 W/m2 SCT
22:52 61.4 °F 34.2 °F 30.27 in WNW 0.1 mph 2.3 mph 36 % 0.00 in 0.0 W/m2 SCT
22:57 61.1 °F 33.9 °F 30.28 in NW 1.1 mph 4.6 mph 36 % 0.00 in 0.0 W/m2 SCT
23:02 60.5 °F 34.7 °F 30.28 in NW 1.6 mph 3.5 mph 38 % 0.00 in 0.0 W/m2 SCT
23:07 60.0 °F 36.8 °F 30.28 in NW 1.9 mph 5.8 mph 42 % 0.00 in 0.0 W/m2 SCT
23:12 59.7 °F 38.9 °F 30.28 in NW 2.6 mph 4.6 mph 46 % 0.00 in 0.0 W/m2 SCT
23:17 59.4 °F 40.7 °F 30.29 in NW 4.4 mph 9.2 mph 50 % 0.00 in 0.0 W/m2 SCT
23:22 59.2 °F 41.6 °F 30.29 in NW 2.6 mph 4.6 mph 52 % 0.00 in 0.0 W/m2 SCT
23:27 58.8 °F 41.2 °F 30.29 in NNW 3.4 mph 5.0 mph 52 % 0.00 in 0.0 W/m2 SCT
23:32 58.4 °F 41.8 °F 30.29 in NW 1.8 mph 4.6 mph 54 % 0.00 in 0.0 W/m2 SCT
23:37 58.1 °F 41.5 °F 30.30 in NNW 0.2 mph 2.3 mph 54 % 0.00 in 0.0 W/m2 SCT
23:42 57.9 °F 42.3 °F 30.30 in North 1.4 mph 5.8 mph 56 % 0.00 in 0.0 W/m2 SCT
23:47 57.7 °F 42.1 °F 30.30 in North 3.5 mph 5.8 mph 56 % 0.00 in 0.0 W/m2 SCT
23:52 57.5 °F 41.9 °F 30.30 in North 3.7 mph 8.1 mph 56 % 0.00 in 0.0 W/m2 SCT
23:57 57.2 °F 42.1 °F 30.30 in NNE 2.3 mph 8.0 mph 57 % 0.00 in 0.0 W/m2 SCT
Air Products Campus Weather
Compliments of Weather Underground - 3.25 mb